Minneapolis, MN (55435)

8:26 AM CST on February 19, 2017 (GMT -0600)
Edina: Fred Richards Park | | Change Station

Elev 835 ft 44.87 °N, 93.34 °W | Updated 3 seconds ago

Mostly Cloudy
Mostly Cloudy
36.6 °F
Feels Like 37 °F
N
3.0
Wind Variable Wind from SE
Gusts 4.0 mph

Today
High -- | Low -- °F
--% Chance of Precip.
Yesterday
High -- | Low -- °F
Precip. -- in
Pressure 29.98 in
Visibility 9.0 miles
Clouds Mostly Cloudy 21000 ft
Windchill 37 °F
Dew Point 36 °F
Humidity 97%
Rainfall 0.00 in
Snow Depth Not available.
7:07 AM 5:47 PM
Last Quarter, 43% visible
METAR KMSP 191353Z 12004KT 9SM BKN210 02/01 A2996 RMK AO2 SLP151 T00220006
Pressure 29.98 in
Visibility 9.0 miles
Clouds Mostly Cloudy 21000 ft
Windchill 37 °F
Dew Point 36 °F
Humidity 97%
Rainfall 0.00 in
Snow Depth Not available.
7:07 AM 5:47 PM
Last Quarter, 43% visible
METAR KMSP 191353Z 12004KT 9SM BKN210 02/01 A2996 RMK AO2 SLP151 T00220006

Get Your Daily Forecast Email!

Thanks for signing up!

Be on the lookout for a verification email in your inbox.

You'll start receiving the daily forecast at 8 AM.

×

10-Day Weather Forecast

Almanac

Astronomy

Feb. 19, 2017 Rise Set
Actual Time
Civil Twilight
Nautical Twilight
Astronomical Twilight
Moon
Length of Visible Light
Length of Day
Tomorrow will be .
, % of the Moon is Illuminated

Today's Extremes

State Highs State Lows

Community

WunderPhotos

Upload Photos

1,962,540 photos uploaded!

WunderBlog® & News

Nearby

Air Quality

  Air Quality AQ Index Pollutant
Not available.

Snow Depth

Station Depth Elevation

Earthquake Activity

City Distance Mag. Time & Date
Minimum magnitude displayed is 2.5.

Coastal Water Temperatures

Place Temperature

Stations

Nearby Weather Stations

Station Location Temp. Windchill Dew Point Humidity Wind Precip. Elev Updated Type
                   

Watches & Warnings

There are currently no watches in effect.